sensor_id;sensor_type;location;lat;lon;timestamp;pressure;altitude;pressure_sealevel;temperature;humidity
2397;BME280;1209;48.410;9.054;2023-04-28T00:00:24;96039.28;;;11.65;100.00
2397;BME280;1209;48.410;9.054;2023-04-28T00:02:49;96038.84;;;11.61;100.00
2397;BME280;1209;48.410;9.054;2023-04-28T00:05:14;96044.41;;;11.73;100.00
2397;BME280;1209;48.410;9.054;2023-04-28T00:07:40;96038.19;;;11.53;100.00
2397;BME280;1209;48.410;9.054;2023-04-28T00:10:05;96037.59;;;11.36;100.00
2397;BME280;1209;48.410;9.054;2023-04-28T00:12:31;96038.66;;;11.42;100.00
2397;BME280;1209;48.410;9.054;2023-04-28T00:14:56;96040.50;;;11.26;100.00
2397;BME280;1209;48.410;9.054;2023-04-28T00:17:22;96037.75;;;11.34;100.00
2397;BME280;1209;48.410;9.054;2023-04-28T00:19:47;96041.09;;;11.43;100.00
2397;BME280;1209;48.410;9.054;2023-04-28T00:22:13;96041.03;;;11.37;100.00
2397;BME280;1209;48.410;9.054;2023-04-28T00:24:39;96035.81;;;11.37;100.00
2397;BME280;1209;48.410;9.054;2023-04-28T00:27:13;96038.22;;;11.38;100.00
2397;BME280;1209;48.410;9.054;2023-04-28T00:29:39;96035.81;;;11.37;100.00
2397;BME280;1209;48.410;9.054;2023-04-28T00:32:04;96032.72;;;11.33;100.00
2397;BME280;1209;48.410;9.054;2023-04-28T00:34:33;96035.34;;;11.33;100.00
2397;BME280;1209;48.410;9.054;2023-04-28T00:37:01;96027.16;;;11.21;100.00
2397;BME280;1209;48.410;9.054;2023-04-28T00:39:26;96029.53;;;11.16;100.00
2397;BME280;1209;48.410;9.054;2023-04-28T00:41:52;96015.69;;;11.37;100.00
2397;BME280;1209;48.410;9.054;2023-04-28T00:44:17;96020.38;;;11.42;100.00
2397;BME280;1209;48.410;9.054;2023-04-28T00:46:42;96027.22;;;11.43;100.00
2397;BME280;1209;48.410;9.054;2023-04-28T00:49:08;96019.00;;;11.46;100.00
2397;BME280;1209;48.410;9.054;2023-04-28T00:51:33;96013.47;;;11.55;100.00
2397;BME280;1209;48.410;9.054;2023-04-28T00:53:59;96008.84;;;11.36;100.00
2397;BME280;1209;48.410;9.054;2023-04-28T00:56:24;96013.16;;;11.44;100.00
2397;BME280;1209;48.410;9.054;2023-04-28T00:58:52;96013.25;;;11.35;100.00
2397;BME280;1209;48.410;9.054;2023-04-28T01:01:18;96009.47;;;11.38;100.00
2397;BME280;1209;48.410;9.054;2023-04-28T01:03:43;96014.34;;;11.26;100.00
2397;BME280;1209;48.410;9.054;2023-04-28T01:06:09;96009.56;;;11.30;100.00
2397;BME280;1209;48.410;9.054;2023-04-28T01:08:36;95999.81;;;11.39;100.00
2397;BME280;1209;48.410;9.054;2023-04-28T01:11:01;96000.88;;;11.44;100.00
2397;BME280;1209;48.410;9.054;2023-04-28T01:13:27;96001.09;;;11.28;100.00
2397;BME280;1209;48.410;9.054;2023-04-28T01:15:53;96001.91;;;11.28;100.00
2397;BME280;1209;48.410;9.054;2023-04-28T01:18:19;95992.97;;;11.38;100.00
2397;BME280;1209;48.410;9.054;2023-04-28T01:20:45;95994.50;;;11.32;100.00
2397;BME280;1209;48.410;9.054;2023-04-28T01:23:15;95998.59;;;11.20;100.00
2397;BME280;1209;48.410;9.054;2023-04-28T01:25:41;95997.28;;;11.30;100.00
2397;BME280;1209;48.410;9.054;2023-04-28T01:28:08;96000.19;;;11.35;100.00
2397;BME280;1209;48.410;9.054;2023-04-28T01:30:33;95995.53;;;11.16;100.00
2397;BME280;1209;48.410;9.054;2023-04-28T01:33:00;95993.19;;;11.21;100.00
2397;BME280;1209;48.410;9.054;2023-04-28T01:35:25;95988.56;;;11.38;100.00
2397;BME280;1209;48.410;9.054;2023-04-28T01:37:50;95978.19;;;11.30;100.00
2397;BME280;1209;48.410;9.054;2023-04-28T01:40:16;95983.84;;;11.33;100.00
2397;BME280;1209;48.410;9.054;2023-04-28T01:42:41;95990.00;;;11.41;100.00
2397;BME280;1209;48.410;9.054;2023-04-28T01:45:07;95981.63;;;11.30;100.00
2397;BME280;1209;48.410;9.054;2023-04-28T01:47:33;95984.84;;;11.32;100.00
2397;BME280;1209;48.410;9.054;2023-04-28T01:49:58;95987.34;;;11.19;100.00
2397;BME280;1209;48.410;9.054;2023-04-28T01:52:24;95991.19;;;11.23;100.00
2397;BME280;1209;48.410;9.054;2023-04-28T01:54:49;95980.19;;;11.28;100.00
2397;BME280;1209;48.410;9.054;2023-04-28T01:57:15;95979.75;;;11.24;100.00
2397;BME280;1209;48.410;9.054;2023-04-28T01:59:40;95977.13;;;11.24;100.00
2397;BME280;1209;48.410;9.054;2023-04-28T02:02:06;95984.59;;;11.27;100.00
2397;BME280;1209;48.410;9.054;2023-04-28T02:04:31;95990.94;;;11.18;100.00
2397;BME280;1209;48.410;9.054;2023-04-28T02:06:56;95990.88;;;11.12;100.00
2397;BME280;1209;48.410;9.054;2023-04-28T02:09:22;95983.97;;;11.25;100.00
2397;BME280;1209;48.410;9.054;2023-04-28T02:11:47;95974.59;;;11.31;100.00
2397;BME280;1209;48.410;9.054;2023-04-28T02:14:13;95977.47;;;11.36;100.00
2397;BME280;1209;48.410;9.054;2023-04-28T02:16:38;95976.09;;;11.40;100.00
2397;BME280;1209;48.410;9.054;2023-04-28T02:19:03;95973.72;;;11.45;100.00
2397;BME280;1209;48.410;9.054;2023-04-28T02:21:28;95976.53;;;11.44;100.00
2397;BME280;1209;48.410;9.054;2023-04-28T02:23:55;95962.47;;;11.45;100.00
2397;BME280;1209;48.410;9.054;2023-04-28T02:26:20;95959.84;;;11.45;100.00
2397;BME280;1209;48.410;9.054;2023-04-28T02:28:45;95953.75;;;11.38;100.00
2397;BME280;1209;48.410;9.054;2023-04-28T02:31:11;95951.63;;;11.26;100.00
2397;BME280;1209;48.410;9.054;2023-04-28T02:33:37;95955.09;;;11.33;100.00
2397;BME280;1209;48.410;9.054;2023-04-28T02:36:04;95957.19;;;11.38;100.00
2397;BME280;1209;48.410;9.054;2023-04-28T02:38:30;95949.97;;;11.40;100.00
2397;BME280;1209;48.410;9.054;2023-04-28T02:41:02;95947.38;;;11.25;100.00
2397;BME280;1209;48.410;9.054;2023-04-28T02:43:29;95954.91;;;11.35;100.00
2397;BME280;1209;48.410;9.054;2023-04-28T02:45:55;95964.84;;;11.40;100.00
2397;BME280;1209;48.410;9.054;2023-04-28T02:48:20;95955.28;;;11.32;100.00
2397;BME280;1209;48.410;9.054;2023-04-28T02:50:45;95956.41;;;11.23;100.00
2397;BME280;1209;48.410;9.054;2023-04-28T02:53:11;95957.72;;;11.33;100.00
2397;BME280;1209;48.410;9.054;2023-04-28T02:55:36;95954.56;;;11.38;100.00
2397;BME280;1209;48.410;9.054;2023-04-28T02:58:02;95969.63;;;11.36;100.00
2397;BME280;1209;48.410;9.054;2023-04-28T03:00:27;95978.91;;;11.39;100.00
2397;BME280;1209;48.410;9.054;2023-04-28T03:02:53;95983.59;;;11.28;100.00
2397;BME280;1209;48.410;9.054;2023-04-28T03:05:18;95986.22;;;11.28;100.00
2397;BME280;1209;48.410;9.054;2023-04-28T03:07:44;95982.22;;;11.32;100.00
2397;BME280;1209;48.410;9.054;2023-04-28T03:10:09;95986.34;;;11.20;100.00
2397;BME280;1209;48.410;9.054;2023-04-28T03:12:34;95989.09;;;11.33;100.00
2397;BME280;1209;48.410;9.054;2023-04-28T03:15:00;95990.81;;;11.26;100.00
2397;BME280;1209;48.410;9.054;2023-04-28T03:17:26;95981.91;;;11.21;100.00
2397;BME280;1209;48.410;9.054;2023-04-28T03:19:51;95984.22;;;11.30;100.00
2397;BME280;1209;48.410;9.054;2023-04-28T03:22:16;95981.19;;;11.27;100.00
2397;BME280;1209;48.410;9.054;2023-04-28T03:24:42;95984.59;;;11.27;100.00
2397;BME280;1209;48.410;9.054;2023-04-28T03:27:07;95972.06;;;11.38;100.00
2397;BME280;1209;48.410;9.054;2023-04-28T03:29:32;95966.94;;;11.29;100.00
2397;BME280;1209;48.410;9.054;2023-04-28T03:31:57;95968.44;;;11.39;100.00
2397;BME280;1209;48.410;9.054;2023-04-28T03:34:23;95964.88;;;11.25;100.00
2397;BME280;1209;48.410;9.054;2023-04-28T03:36:48;95959.41;;;11.41;100.00
2397;BME280;1209;48.410;9.054;2023-04-28T03:39:13;95952.94;;;11.37;100.00
2397;BME280;1209;48.410;9.054;2023-04-28T03:41:39;95948.78;;;11.43;100.00
2397;BME280;1209;48.410;9.054;2023-04-28T03:44:04;95943.97;;;11.46;100.00
2397;BME280;1209;48.410;9.054;2023-04-28T03:46:29;95945.59;;;11.47;100.00
2397;BME280;1209;48.410;9.054;2023-04-28T03:48:54;95944.59;;;11.48;100.00
2397;BME280;1209;48.410;9.054;2023-04-28T03:51:20;95938.63;;;11.54;100.00
2397;BME280;1209;48.410;9.054;2023-04-28T03:53:45;95943.47;;;11.57;100.00
2397;BME280;1209;48.410;9.054;2023-04-28T03:56:10;95943.09;;;11.60;100.00
2397;BME280;1209;48.410;9.054;2023-04-28T03:58:36;95940.19;;;11.49;100.00
2397;BME280;1209;48.410;9.054;2023-04-28T04:01:01;95928.47;;;11.45;100.00
2397;BME280;1209;48.410;9.054;2023-04-28T04:03:26;95944.69;;;11.61;100.00
2397;BME280;1209;48.410;9.054;2023-04-28T04:05:52;95942.66;;;11.57;100.00
2397;BME280;1209;48.410;9.054;2023-04-28T04:08:19;95944.00;;;11.74;100.00
2397;BME280;1209;48.410;9.054;2023-04-28T04:10:44;95948.38;;;11.88;100.00
2397;BME280;1209;48.410;9.054;2023-04-28T04:13:10;95945.44;;;11.98;100.00
2397;BME280;1209;48.410;9.054;2023-04-28T04:15:35;95945.81;;;11.95;100.00
2397;BME280;1209;48.410;9.054;2023-04-28T04:18:00;95952.03;;;11.94;100.00
2397;BME280;1209;48.410;9.054;2023-04-28T04:20:26;95947.59;;;12.22;100.00
2397;BME280;1209;48.410;9.054;2023-04-28T04:22:51;95939.97;;;12.27;100.00
2397;BME280;1209;48.410;9.054;2023-04-28T04:25:16;95941.56;;;12.28;100.00
2397;BME280;1209;48.410;9.054;2023-04-28T04:27:42;95930.88;;;12.23;100.00
2397;BME280;1209;48.410;9.054;2023-04-28T04:30:07;95931.28;;;12.27;100.00
2397;BME280;1209;48.410;9.054;2023-04-28T04:32:33;95929.66;;;12.19;100.00
2397;BME280;1209;48.410;9.054;2023-04-28T04:34:58;95926.84;;;12.21;100.00
2397;BME280;1209;48.410;9.054;2023-04-28T04:37:23;95923.03;;;12.23;100.00
2397;BME280;1209;48.410;9.054;2023-04-28T04:39:49;95922.41;;;12.21;100.00
2397;BME280;1209;48.410;9.054;2023-04-28T04:42:14;95923.78;;;12.17;100.00
2397;BME280;1209;48.410;9.054;2023-04-28T04:44:39;95919.38;;;12.18;100.00
2397;BME280;1209;48.410;9.054;2023-04-28T04:47:04;95914.53;;;12.15;100.00
2397;BME280;1209;48.410;9.054;2023-04-28T04:49:30;95916.97;;;12.23;100.00
2397;BME280;1209;48.410;9.054;2023-04-28T04:51:55;95905.50;;;12.24;100.00
2397;BME280;1209;48.410;9.054;2023-04-28T04:54:21;95911.72;;;12.16;100.00
2397;BME280;1209;48.410;9.054;2023-04-28T04:56:46;95911.34;;;12.26;100.00
2397;BME280;1209;48.410;9.054;2023-04-28T04:59:12;95914.53;;;12.15;100.00
2397;BME280;1209;48.410;9.054;2023-04-28T05:01:37;95911.53;;;12.24;100.00
2397;BME280;1209;48.410;9.054;2023-04-28T05:04:02;95910.13;;;12.22;100.00
2397;BME280;1209;48.410;9.054;2023-04-28T05:06:28;95905.72;;;12.29;100.00
2397;BME280;1209;48.410;9.054;2023-04-28T05:08:53;95906.78;;;12.35;100.00
2397;BME280;1209;48.410;9.054;2023-04-28T05:11:20;95911.03;;;12.36;100.00
2397;BME280;1209;48.410;9.054;2023-04-28T05:13:46;95902.56;;;12.34;100.00
2397;BME280;1209;48.410;9.054;2023-04-28T05:16:11;95903.78;;;12.38;100.00
2397;BME280;1209;48.410;9.054;2023-04-28T05:18:36;95903.00;;;12.44;100.00
2397;BME280;1209;48.410;9.054;2023-04-28T05:21:02;95899.78;;;12.48;100.00
2397;BME280;1209;48.410;9.054;2023-04-28T05:23:27;95892.09;;;12.40;100.00
2397;BME280;1209;48.410;9.054;2023-04-28T05:25:52;95884.25;;;12.40;100.00
2397;BME280;1209;48.410;9.054;2023-04-28T05:28:18;95883.66;;;12.38;100.00
2397;BME280;1209;48.410;9.054;2023-04-28T05:30:43;95891.09;;;12.41;100.00
2397;BME280;1209;48.410;9.054;2023-04-28T05:33:09;95906.25;;;12.52;100.00
2397;BME280;1209;48.410;9.054;2023-04-28T05:35:34;95900.00;;;12.53;100.00
2397;BME280;1209;48.410;9.054;2023-04-28T05:38:00;95897.78;;;12.50;100.00
2397;BME280;1209;48.410;9.054;2023-04-28T05:40:25;95905.88;;;12.55;100.00
2397;BME280;1209;48.410;9.054;2023-04-28T05:42:51;95909.91;;;12.58;100.00
2397;BME280;1209;48.410;9.054;2023-04-28T05:45:17;95906.69;;;12.63;100.00
2397;BME280;1209;48.410;9.054;2023-04-28T05:47:42;95908.34;;;12.70;100.00
2397;BME280;1209;48.410;9.054;2023-04-28T05:50:08;95903.28;;;12.69;100.00
2397;BME280;1209;48.410;9.054;2023-04-28T05:52:33;95910.56;;;12.73;100.00
2397;BME280;1209;48.410;9.054;2023-04-28T05:54:59;95911.44;;;12.87;100.00
2397;BME280;1209;48.410;9.054;2023-04-28T05:57:24;95918.91;;;12.90;100.00
2397;BME280;1209;48.410;9.054;2023-04-28T05:59:49;95913.47;;;12.98;100.00
2397;BME280;1209;48.410;9.054;2023-04-28T06:02:15;95910.84;;;12.91;100.00
2397;BME280;1209;48.410;9.054;2023-04-28T06:04:41;95910.47;;;13.08;100.00
2397;BME280;1209;48.410;9.054;2023-04-28T06:07:07;95910.47;;;13.14;100.00
2397;BME280;1209;48.410;9.054;2023-04-28T06:09:32;95908.66;;;13.15;100.00
2397;BME280;1209;48.410;9.054;2023-04-28T06:11:57;95907.50;;;13.24;100.00
2397;BME280;1209;48.410;9.054;2023-04-28T06:14:23;95909.13;;;13.25;100.00
2397;BME280;1209;48.410;9.054;2023-04-28T06:16:49;95902.09;;;13.39;100.00
2397;BME280;1209;48.410;9.054;2023-04-28T06:19:15;95908.53;;;13.43;100.00
2397;BME280;1209;48.410;9.054;2023-04-28T06:21:43;95900.28;;;13.46;100.00
2397;BME280;1209;48.410;9.054;2023-04-28T06:24:08;95898.66;;;13.45;100.00
2397;BME280;1209;48.410;9.054;2023-04-28T06:26:33;95905.13;;;13.42;100.00
2397;BME280;1209;48.410;9.054;2023-04-28T06:28:58;95908.94;;;13.46;100.00
2397;BME280;1209;48.410;9.054;2023-04-28T06:31:24;95915.81;;;13.54;100.00
2397;BME280;1209;48.410;9.054;2023-04-28T06:33:49;95910.56;;;13.54;100.00
2397;BME280;1209;48.410;9.054;2023-04-28T06:36:14;95914.59;;;13.50;100.00
2397;BME280;1209;48.410;9.054;2023-04-28T06:38:42;95911.16;;;13.43;100.00
2397;BME280;1209;48.410;9.054;2023-04-28T06:41:08;95905.13;;;13.49;100.00
2397;BME280;1209;48.410;9.054;2023-04-28T06:43:34;95900.25;;;13.39;100.00
2397;BME280;1209;48.410;9.054;2023-04-28T06:45:59;95900.66;;;13.56;100.00
2397;BME280;1209;48.410;9.054;2023-04-28T06:48:25;95901.69;;;13.62;100.00
2397;BME280;1209;48.410;9.054;2023-04-28T06:50:50;95895.81;;;13.60;100.00
2397;BME280;1209;48.410;9.054;2023-04-28T06:53:16;95895.63;;;13.61;100.00
2397;BME280;1209;48.410;9.054;2023-04-28T06:55:41;95885.94;;;13.68;100.00
2397;BME280;1209;48.410;9.054;2023-04-28T06:58:07;95880.47;;;13.70;100.00
2397;BME280;1209;48.410;9.054;2023-04-28T07:00:33;95885.34;;;13.73;100.00
2397;BME280;1209;48.410;9.054;2023-04-28T07:02:58;95881.91;;;13.72;100.00
2397;BME280;1209;48.410;9.054;2023-04-28T07:05:23;95884.91;;;13.69;100.00
2397;BME280;1209;48.410;9.054;2023-04-28T07:07:49;95879.69;;;13.76;100.00
2397;BME280;1209;48.410;9.054;2023-04-28T07:10:14;95888.16;;;13.71;100.00
2397;BME280;1209;48.410;9.054;2023-04-28T07:12:40;95874.22;;;13.71;100.00
2397;BME280;1209;48.410;9.054;2023-04-28T07:15:06;95875.84;;;13.72;100.00
2397;BME280;1209;48.410;9.054;2023-04-28T07:17:31;95877.47;;;13.79;100.00
2397;BME280;1209;48.410;9.054;2023-04-28T07:19:57;95877.28;;;13.74;100.00
2397;BME280;1209;48.410;9.054;2023-04-28T07:22:22;95879.06;;;13.80;100.00
2397;BME280;1209;48.410;9.054;2023-04-28T07:24:47;95874.22;;;13.77;100.00
2397;BME280;1209;48.410;9.054;2023-04-28T07:27:13;95871.81;;;13.82;100.00
2397;BME280;1209;48.410;9.054;2023-04-28T07:29:38;95883.09;;;13.90;100.00
2397;BME280;1209;48.410;9.054;2023-04-28T07:32:03;95878.06;;;13.88;100.00
2397;BME280;1209;48.410;9.054;2023-04-28T07:34:30;95885.13;;;13.88;100.00
2397;BME280;1209;48.410;9.054;2023-04-28T07:36:55;95883.50;;;13.86;100.00
2397;BME280;1209;48.410;9.054;2023-04-28T07:39:21;95878.06;;;13.88;100.00
2397;BME280;1209;48.410;9.054;2023-04-28T07:41:46;95879.88;;;13.88;100.00
2397;BME280;1209;48.410;9.054;2023-04-28T07:44:11;95877.03;;;13.89;100.00
2397;BME280;1209;48.410;9.054;2023-04-28T07:46:37;95882.88;;;13.91;100.00
2397;BME280;1209;48.410;9.054;2023-04-28T07:49:02;95885.72;;;13.90;100.00
2397;BME280;1209;48.410;9.054;2023-04-28T07:51:29;95886.53;;;13.90;100.00
2397;BME280;1209;48.410;9.054;2023-04-28T07:53:56;95872.59;;;13.83;100.00
2397;BME280;1209;48.410;9.054;2023-04-28T07:56:21;95879.06;;;13.87;100.00
2397;BME280;1209;48.410;9.054;2023-04-28T07:58:46;95878.84;;;13.89;100.00
2397;BME280;1209;48.410;9.054;2023-04-28T08:01:12;95876.63;;;13.85;100.00
2397;BME280;1209;48.410;9.054;2023-04-28T08:03:37;95881.47;;;13.89;100.00
2397;BME280;1209;48.410;9.054;2023-04-28T08:06:03;95890.97;;;13.90;100.00
2397;BME280;1209;48.410;9.054;2023-04-28T08:08:29;95896.03;;;13.84;100.00
2397;BME280;1209;48.410;9.054;2023-04-28T08:10:54;95903.28;;;13.69;100.00
2397;BME280;1209;48.410;9.054;2023-04-28T08:13:20;95901.88;;;13.67;100.00
2397;BME280;1209;48.410;9.054;2023-04-28T08:15:46;95895.81;;;13.60;100.00
2397;BME280;1209;48.410;9.054;2023-04-28T08:18:12;95902.28;;;13.57;100.00
2397;BME280;1209;48.410;9.054;2023-04-28T08:20:37;95905.50;;;13.52;100.00
2397;BME280;1209;48.410;9.054;2023-04-28T08:23:02;95904.31;;;13.55;100.00
2397;BME280;1209;48.410;9.054;2023-04-28T08:25:28;95901.69;;;13.55;100.00
2397;BME280;1209;48.410;9.054;2023-04-28T08:27:53;95906.13;;;13.54;100.00
2397;BME280;1209;48.410;9.054;2023-04-28T08:30:20;95909.56;;;13.55;100.00
2397;BME280;1209;48.410;9.054;2023-04-28T08:32:45;95913.38;;;13.66;100.00
2397;BME280;1209;48.410;9.054;2023-04-28T08:35:11;95911.56;;;13.66;100.00
2397;BME280;1209;48.410;9.054;2023-04-28T08:37:37;95910.94;;;13.71;100.00
2397;BME280;1209;48.410;9.054;2023-04-28T08:40:02;95906.94;;;13.81;100.00
2397;BME280;1209;48.410;9.054;2023-04-28T08:42:33;95918.84;;;13.84;100.00
2397;BME280;1209;48.410;9.054;2023-04-28T08:44:59;95932.56;;;13.93;100.00
2397;BME280;1209;48.410;9.054;2023-04-28T08:47:37;95919.84;;;13.90;100.00
2397;BME280;1209;48.410;9.054;2023-04-28T08:50:05;95921.44;;;13.97;100.00
2397;BME280;1209;48.410;9.054;2023-04-28T08:52:31;95921.84;;;14.01;100.00
2397;BME280;1209;48.410;9.054;2023-04-28T08:54:58;95934.75;;;14.09;100.00
2397;BME280;1209;48.410;9.054;2023-04-28T08:57:26;95935.56;;;14.16;100.00
2397;BME280;1209;48.410;9.054;2023-04-28T08:59:54;95946.28;;;14.21;100.00
2397;BME280;1209;48.410;9.054;2023-04-28T09:02:20;95949.91;;;14.20;100.00
2397;BME280;1209;48.410;9.054;2023-04-28T09:04:46;95959.41;;;14.21;100.00
2397;BME280;1209;48.410;9.054;2023-04-28T09:07:12;95956.34;;;14.31;100.00
2397;BME280;1209;48.410;9.054;2023-04-28T09:09:38;95962.03;;;14.28;100.00
2397;BME280;1209;48.410;9.054;2023-04-28T09:12:05;95956.97;;;14.26;100.00
2397;BME280;1209;48.410;9.054;2023-04-28T09:14:32;95969.72;;;14.23;100.00
2397;BME280;1209;48.410;9.054;2023-04-28T09:16:58;95968.50;;;14.25;100.00
2397;BME280;1209;48.410;9.054;2023-04-28T09:19:31;95978.81;;;14.20;100.00
2397;BME280;1209;48.410;9.054;2023-04-28T09:21:58;95968.31;;;14.20;100.00
2397;BME280;1209;48.410;9.054;2023-04-28T09:24:44;95978.78;;;14.13;100.00
2397;BME280;1209;48.410;9.054;2023-04-28T09:27:11;95982.63;;;14.11;100.00
2397;BME280;1209;48.410;9.054;2023-04-28T09:29:37;95983.22;;;14.13;100.00
2397;BME280;1209;48.410;9.054;2023-04-28T09:32:19;95983.03;;;14.14;100.00
2397;BME280;1209;48.410;9.054;2023-04-28T09:34:51;95979.00;;;14.12;100.00
2397;BME280;1209;48.410;9.054;2023-04-28T09:37:21;95986.06;;;14.18;100.00
2397;BME280;1209;48.410;9.054;2023-04-28T09:39:49;95987.88;;;14.24;100.00
2397;BME280;1209;48.410;9.054;2023-04-28T09:45:00;95989.09;;;14.48;100.00
2397;BME280;1209;48.410;9.054;2023-04-28T09:47:27;95994.72;;;14.52;100.00
2397;BME280;1209;48.410;9.054;2023-04-28T09:49:58;95986.00;;;14.64;100.00
2397;BME280;1209;48.410;9.054;2023-04-28T09:52:24;95987.22;;;14.68;100.00
2397;BME280;1209;48.410;9.054;2023-04-28T09:54:50;95984.56;;;14.82;100.00
2397;BME280;1209;48.410;9.054;2023-04-28T09:57:16;95982.47;;;14.97;100.00
2397;BME280;1209;48.410;9.054;2023-04-28T09:59:50;95986.22;;;15.21;100.00
2397;BME280;1209;48.410;9.054;2023-04-28T10:02:17;95986.56;;;15.31;100.00
2397;BME280;1209;48.410;9.054;2023-04-28T10:04:46;95989.16;;;15.37;100.00
2397;BME280;1209;48.410;9.054;2023-04-28T10:07:13;95991.41;;;15.34;100.00
2397;BME280;1209;48.410;9.054;2023-04-28T10:09:39;95989.88;;;15.51;100.00
2397;BME280;1209;48.410;9.054;2023-04-28T10:12:09;95993.91;;;15.60;100.00
2397;BME280;1209;48.410;9.054;2023-04-28T10:14:36;95978.94;;;15.61;100.00
2397;BME280;1209;48.410;9.054;2023-04-28T10:17:02;95985.78;;;15.68;100.00
2397;BME280;1209;48.410;9.054;2023-04-28T10:19:28;95981.47;;;15.74;100.00
2397;BME280;1209;48.410;9.054;2023-04-28T10:22:12;95987.44;;;15.63;100.00
2397;BME280;1209;48.410;9.054;2023-04-28T10:27:47;95992.78;;;15.81;100.00
2397;BME280;1209;48.410;9.054;2023-04-28T10:30:16;95982.63;;;15.85;100.00
2397;BME280;1209;48.410;9.054;2023-04-28T10:32:42;95985.72;;;16.00;100.00
2397;BME280;1209;48.410;9.054;2023-04-28T10:38:16;95980.47;;;16.43;100.00
2397;BME280;1209;48.410;9.054;2023-04-28T10:40:46;95984.00;;;16.80;100.00
2397;BME280;1209;48.410;9.054;2023-04-28T10:48:17;95989.47;;;17.15;100.00
2397;BME280;1209;48.410;9.054;2023-04-28T10:56:08;95982.81;;;17.13;100.00
2397;BME280;1209;48.410;9.054;2023-04-28T10:58:34;95987.56;;;16.86;100.00
2397;BME280;1209;48.410;9.054;2023-04-28T11:03:49;95985.53;;;17.06;100.00
2397;BME280;1209;48.410;9.054;2023-04-28T11:06:41;95991.03;;;16.68;100.00
2397;BME280;1209;48.410;9.054;2023-04-28T11:14:36;95993.38;;;16.76;100.00
2397;BME280;1209;48.410;9.054;2023-04-28T11:17:05;95985.53;;;17.36;100.00
2397;BME280;1209;48.410;9.054;2023-04-28T11:21:59;95989.44;;;18.05;100.00
2397;BME280;1209;48.410;9.054;2023-04-28T11:24:26;95973.94;;;18.20;100.00
2397;BME280;1209;48.410;9.054;2023-04-28T11:26:53;95984.16;;;18.17;100.00
2397;BME280;1209;48.410;9.054;2023-04-28T11:29:39;95989.00;;;17.67;100.00
2397;BME280;1209;48.410;9.054;2023-04-28T11:32:06;95986.88;;;17.57;100.00
2397;BME280;1209;48.410;9.054;2023-04-28T11:34:32;95993.69;;;17.35;100.00
2397;BME280;1209;48.410;9.054;2023-04-28T11:36:58;95989.03;;;17.18;100.00
2397;BME280;1209;48.410;9.054;2023-04-28T11:39:30;95992.69;;;17.17;100.00
2397;BME280;1209;48.410;9.054;2023-04-28T11:41:57;95986.75;;;17.22;100.00
2397;BME280;1209;48.410;9.054;2023-04-28T11:44:24;95989.19;;;17.35;100.00
2397;BME280;1209;48.410;9.054;2023-04-28T11:49:25;95991.00;;;17.23;100.00
2397;BME280;1209;48.410;9.054;2023-04-28T11:51:55;95976.84;;;17.47;100.00
2397;BME280;1209;48.410;9.054;2023-04-28T11:54:21;95977.88;;;17.46;100.00
2397;BME280;1209;48.410;9.054;2023-04-28T11:56:47;95988.16;;;17.54;100.00
2397;BME280;1209;48.410;9.054;2023-04-28T11:59:12;95982.94;;;17.48;100.00
2397;BME280;1209;48.410;9.054;2023-04-28T12:01:51;95985.31;;;17.38;100.00
2397;BME280;1209;48.410;9.054;2023-04-28T12:04:33;95977.13;;;17.27;100.00
2397;BME280;1209;48.410;9.054;2023-04-28T12:07:07;95975.31;;;17.40;100.00
2397;BME280;1209;48.410;9.054;2023-04-28T12:09:35;95973.78;;;17.50;100.00
2397;BME280;1209;48.410;9.054;2023-04-28T12:12:03;95975.00;;;17.48;100.00
2397;BME280;1209;48.410;9.054;2023-04-28T12:14:31;95985.41;;;17.31;100.00
2397;BME280;1209;48.410;9.054;2023-04-28T12:17:00;95990.22;;;17.34;100.00
2397;BME280;1209;48.410;9.054;2023-04-28T12:19:25;95988.22;;;17.48;100.00
2397;BME280;1209;48.410;9.054;2023-04-28T12:22:04;95989.59;;;17.69;100.00
2397;BME280;1209;48.410;9.054;2023-04-28T12:24:30;95987.00;;;17.92;100.00
2397;BME280;1209;48.410;9.054;2023-04-28T12:27:19;95990.72;;;18.14;100.00
2397;BME280;1209;48.410;9.054;2023-04-28T12:29:46;95989.91;;;18.02;100.00
2397;BME280;1209;48.410;9.054;2023-04-28T12:32:12;95989.78;;;18.09;100.00
2397;BME280;1209;48.410;9.054;2023-04-28T12:34:39;95990.72;;;18.26;100.00
2397;BME280;1209;48.410;9.054;2023-04-28T12:37:05;95988.41;;;18.18;100.00
2397;BME280;1209;48.410;9.054;2023-04-28T12:39:32;95988.41;;;18.06;100.00
2397;BME280;1209;48.410;9.054;2023-04-28T12:41:58;95981.81;;;17.97;100.00
2397;BME280;1209;48.410;9.054;2023-04-28T12:44:24;95983.66;;;17.85;100.00
2397;BME280;1209;48.410;9.054;2023-04-28T12:46:50;95980.31;;;17.89;100.00
2397;BME280;1209;48.410;9.054;2023-04-28T12:49:16;95983.19;;;17.88;100.00
2397;BME280;1209;48.410;9.054;2023-04-28T12:51:41;95987.38;;;18.07;100.00
2397;BME280;1209;48.410;9.054;2023-04-28T12:54:07;95980.94;;;18.15;100.00
2397;BME280;1209;48.410;9.054;2023-04-28T12:56:32;95973.81;;;18.27;100.00
2397;BME280;1209;48.410;9.054;2023-04-28T12:58:58;95973.34;;;18.30;100.00
2397;BME280;1209;48.410;9.054;2023-04-28T13:01:24;95975.91;;;18.48;100.00
2397;BME280;1209;48.410;9.054;2023-04-28T13:03:49;95971.19;;;18.15;100.00
2397;BME280;1209;48.410;9.054;2023-04-28T13:06:17;95975.66;;;18.27;100.00
2397;BME280;1209;48.410;9.054;2023-04-28T13:08:42;95969.81;;;18.24;100.00
2397;BME280;1209;48.410;9.054;2023-04-28T13:11:08;95958.31;;;18.07;100.00
2397;BME280;1209;48.410;9.054;2023-04-28T13:13:35;95967.00;;;17.96;100.00
2397;BME280;1209;48.410;9.054;2023-04-28T13:16:00;95956.19;;;17.86;100.00
2397;BME280;1209;48.410;9.054;2023-04-28T13:18:26;95959.19;;;17.89;100.00
2397;BME280;1209;48.410;9.054;2023-04-28T13:20:51;95954.44;;;17.68;100.00
2397;BME280;1209;48.410;9.054;2023-04-28T13:23:16;95954.53;;;17.61;100.00
2397;BME280;1209;48.410;9.054;2023-04-28T13:25:42;95946.19;;;17.76;100.00
2397;BME280;1209;48.410;9.054;2023-04-28T13:28:07;95938.09;;;18.01;100.00
2397;BME280;1209;48.410;9.054;2023-04-28T13:30:32;95939.13;;;18.12;100.00
2397;BME280;1209;48.410;9.054;2023-04-28T13:32:58;95937.00;;;17.90;100.00
2397;BME280;1209;48.410;9.054;2023-04-28T13:35:24;95946.53;;;17.80;100.00
2397;BME280;1209;48.410;9.054;2023-04-28T13:37:50;95945.34;;;17.64;100.00